Missouri River (Missouri), Napolean (06894650)

StateMissouriLatestUnknown (51400 cfs)
RiverMissouri RiverRatingObservedEstimated
Updated2026-05-05 11:00 (30 minutes ago)Flood - The river is flooding. Obstacles can be treacherous or deadly. The river should be avoided at this stage for casual trips and definitely for the inexperienced. Trips should be attempted only with protective gear and equipment.Flood(none)(none)
Discharge51400 cfs (median: 89500 cfs)High - The river is high and potentially dangerous, especially for the young and / or inexperienced. Normal stream obstacles are sometimes difficult to navigate. Extended distances can be attempted, but canoe travel may not be advisable.High(none)(none)
Height8.49 feetGood - Conditions are ideal for a canoe or kayak. Boats typically will drag on fewer than one-quarter of riffles, if at all, and portages are unnecessary or rare. Normal float lengths can be attempted without a problem.Good(none)(none)
TrendRising (steady over 24 hours)Low - River is low but can still be floated. Some riffles are okay but most come with significant dragging and might need a portage. Float lengths should be reduced to accommodate low flow, dragging, and portages.Low(none)(none)
USGSExternal icon USGS Site (External icon Duck Duck Go Maps)Poor - River is too low to float comfortably. Most or all riffles will drag or must be portaged and some obstacles (such as slick shelf rock) cause undue problems. Avoid the river at this stage for casual paddling trips.Poor(none)(none)

Trending Data

Plot Image

Trips for Missouri River (Missouri), Napolean (06894650)

DateStartEndDistanceConditionDischargeHeightFishingDetails

A total of 0 rows are displayed.

Condition Descriptions

Fishing Conditions

Fish Species

Notes

Classic Trip List

The classic River Trips application is still available for use. It is updated with the new system using a data retrofit. It is no longer maintained. The original River Trips application is no longer updated (as of 1 Dec 2016) but can be checked for errors or for the condition of the data before it was converted to the new system.

Gauge Data Table

ObservationHeightDischargeMaximum
Discharge
Minimum
Discharge
Mean
Discharge
P05P10P20P25P50
(Median)
P75P80P90P95
2026-05-05 11:00 8.49 51400 142000 (2016) 37000 (2023) 85700 38200 49600 51100 89500 107000 131000 142000
2026-05-05 10:00 8.47 51300 142000 (2016) 37000 (2023) 85700 38200 49600 51100 89500 107000 131000 142000
2026-05-05 09:00 8.48 51300 142000 (2016) 37000 (2023) 85700 38200 49600 51100 89500 107000 131000 142000
2026-05-05 08:00 8.46 51200 142000 (2016) 37000 (2023) 85700 38200 49600 51100 89500 107000 131000 142000
2026-05-05 07:00 8.46 51200 142000 (2016) 37000 (2023) 85700 38200 49600 51100 89500 107000 131000 142000
2026-05-05 06:00 8.47 51300 142000 (2016) 37000 (2023) 85700 38200 49600 51100 89500 107000 131000 142000
2026-05-05 05:00 8.46 51200 142000 (2016) 37000 (2023) 85700 38200 49600 51100 89500 107000 131000 142000
2026-05-05 04:00 8.46 51200 142000 (2016) 37000 (2023) 85700 38200 49600 51100 89500 107000 131000 142000
2026-05-05 03:00 8.44 51100 142000 (2016) 37000 (2023) 85700 38200 49600 51100 89500 107000 131000 142000
2026-05-05 02:00 8.45 51200 142000 (2016) 37000 (2023) 85700 38200 49600 51100 89500 107000 131000 142000
2026-05-05 01:00 8.48 51300 142000 (2016) 37000 (2023) 85700 38200 49600 51100 89500 107000 131000 142000
2026-05-05 00:00 8.48 51300 142000 (2016) 37000 (2023) 85700 38200 49600 51100 89500 107000 131000 142000
2026-05-04 23:00 8.46 51200 142000 (2016) 37000 (2023) 85700 38200 49600 51100 89500 107000 131000 142000
2026-05-04 22:00 8.46 51200 153000 (2016) 37600 (2023) 85800 38400 46500 49700 84500 115000 141000 153000
2026-05-04 21:00 8.47 51300 153000 (2016) 37600 (2023) 85800 38400 46500 49700 84500 115000 141000 153000
2026-05-04 20:00 8.47 51300 153000 (2016) 37600 (2023) 85800 38400 46500 49700 84500 115000 141000 153000
2026-05-04 19:00 8.46 51200 153000 (2016) 37600 (2023) 85800 38400 46500 49700 84500 115000 141000 153000
2026-05-04 18:00 8.49 51400 153000 (2016) 37600 (2023) 85800 38400 46500 49700 84500 115000 141000 153000
2026-05-04 17:00 8.51 51500 153000 (2016) 37600 (2023) 85800 38400 46500 49700 84500 115000 141000 153000
2026-05-04 16:00 8.49 51400 153000 (2016) 37600 (2023) 85800 38400 46500 49700 84500 115000 141000 153000
2026-05-04 15:00 8.47 51300 153000 (2016) 37600 (2023) 85800 38400 46500 49700 84500 115000 141000 153000
2026-05-04 14:00 8.50 51400 153000 (2016) 37600 (2023) 85800 38400 46500 49700 84500 115000 141000 153000
2026-05-04 13:00 8.50 51400 153000 (2016) 37600 (2023) 85800 38400 46500 49700 84500 115000 141000 153000
2026-05-04 12:00 8.53 51600 153000 (2016) 37600 (2023) 85800 38400 46500 49700 84500 115000 141000 153000
2026-05-04 11:00 8.51 51500 153000 (2016) 37600 (2023) 85800 38400 46500 49700 84500 115000 141000 153000
2026-05-04 10:00 8.50 51400 153000 (2016) 37600 (2023) 85800 38400 46500 49700 84500 115000 141000 153000
2026-05-04 09:00 8.51 51500 153000 (2016) 37600 (2023) 85800 38400 46500 49700 84500 115000 141000 153000
2026-05-04 08:00 8.51 51500 153000 (2016) 37600 (2023) 85800 38400 46500 49700 84500 115000 141000 153000
2026-05-04 07:00 8.53 51600 153000 (2016) 37600 (2023) 85800 38400 46500 49700 84500 115000 141000 153000
2026-05-04 06:00 8.54 51700 153000 (2016) 37600 (2023) 85800 38400 46500 49700 84500 115000 141000 153000
2026-05-04 05:00 8.52 51600 153000 (2016) 37600 (2023) 85800 38400 46500 49700 84500 115000 141000 153000
2026-05-04 04:00 8.51 51500 153000 (2016) 37600 (2023) 85800 38400 46500 49700 84500 115000 141000 153000
2026-05-04 03:00 8.52 51600 153000 (2016) 37600 (2023) 85800 38400 46500 49700 84500 115000 141000 153000
2026-05-04 02:00 8.53 51600 153000 (2016) 37600 (2023) 85800 38400 46500 49700 84500 115000 141000 153000
2026-05-04 01:00 8.53 51600 153000 (2016) 37600 (2023) 85800 38400 46500 49700 84500 115000 141000 153000
2026-05-04 00:00 8.56 51800 153000 (2016) 37600 (2023) 85800 38400 46500 49700 84500 115000 141000 153000
2026-05-03 23:00 8.55 51700 153000 (2016) 37600 (2023) 85800 38400 46500 49700 84500 115000 141000 153000
2026-05-03 22:00 8.57 51900 171000 (2019) 38200 (2023) 88900 39000 47200 50400 81000 123000 151000 170000
2026-05-03 21:00 8.55 51700 171000 (2019) 38200 (2023) 88900 39000 47200 50400 81000 123000 151000 170000
2026-05-03 20:00 8.59 52000 171000 (2019) 38200 (2023) 88900 39000 47200 50400 81000 123000 151000 170000
2026-05-03 19:00 8.57 51900 171000 (2019) 38200 (2023) 88900 39000 47200 50400 81000 123000 151000 170000
2026-05-03 18:00 8.61 52100 171000 (2019) 38200 (2023) 88900 39000 47200 50400 81000 123000 151000 170000
2026-05-03 17:00 8.59 52000 171000 (2019) 38200 (2023) 88900 39000 47200 50400 81000 123000 151000 170000
2026-05-03 16:00 8.63 52200 171000 (2019) 38200 (2023) 88900 39000 47200 50400 81000 123000 151000 170000
2026-05-03 15:00 8.63 52200 171000 (2019) 38200 (2023) 88900 39000 47200 50400 81000 123000 151000 170000
2026-05-03 14:00 8.63 52200 171000 (2019) 38200 (2023) 88900 39000 47200 50400 81000 123000 151000 170000
2026-05-03 13:00 8.64 52300 171000 (2019) 38200 (2023) 88900 39000 47200 50400 81000 123000 151000 170000
2026-05-03 12:00 8.63 52200 171000 (2019) 38200 (2023) 88900 39000 47200 50400 81000 123000 151000 170000
2026-05-03 11:00 8.67 52400 171000 (2019) 38200 (2023) 88900 39000 47200 50400 81000 123000 151000 170000
2026-05-03 10:00 8.70 52600 171000 (2019) 38200 (2023) 88900 39000 47200 50400 81000 123000 151000 170000
2026-05-03 09:00 8.69 52600 171000 (2019) 38200 (2023) 88900 39000 47200 50400 81000 123000 151000 170000
2026-05-03 08:00 8.69 52600 171000 (2019) 38200 (2023) 88900 39000 47200 50400 81000 123000 151000 170000
2026-05-03 07:00 8.73 52800 171000 (2019) 38200 (2023) 88900 39000 47200 50400 81000 123000 151000 170000
2026-05-03 06:00 8.74 52900 171000 (2019) 38200 (2023) 88900 39000 47200 50400 81000 123000 151000 170000
2026-05-03 05:00 8.75 52900 171000 (2019) 38200 (2023) 88900 39000 47200 50400 81000 123000 151000 170000
2026-05-03 04:00 8.76 53000 171000 (2019) 38200 (2023) 88900 39000 47200 50400 81000 123000 151000 170000
2026-05-03 03:00 8.80 53200 171000 (2019) 38200 (2023) 88900 39000 47200 50400 81000 123000 151000 170000
2026-05-03 02:00 8.82 53300 171000 (2019) 38200 (2023) 88900 39000 47200 50400 81000 123000 151000 170000
2026-05-03 01:00 8.83 53400 171000 (2019) 38200 (2023) 88900 39000 47200 50400 81000 123000 151000 170000
2026-05-03 00:00 8.89 53800 171000 (2019) 38200 (2023) 88900 39000 47200 50400 81000 123000 151000 170000
2026-05-02 23:00 8.92 53900 171000 (2019) 38200 (2023) 88900 39000 47200 50400 81000 123000 151000 170000
2026-05-02 22:00 8.91 53900 188000 (2019) 38100 (2023) 90300 39000 47800 51000 75400 125000 161000 187000
2026-05-02 21:00 8.93 54000 188000 (2019) 38100 (2023) 90300 39000 47800 51000 75400 125000 161000 187000
2026-05-02 20:00 8.98 54300 188000 (2019) 38100 (2023) 90300 39000 47800 51000 75400 125000 161000 187000
2026-05-02 19:00 8.99 54400 188000 (2019) 38100 (2023) 90300 39000 47800 51000 75400 125000 161000 187000
2026-05-02 18:00 9.03 54600 188000 (2019) 38100 (2023) 90300 39000 47800 51000 75400 125000 161000 187000
2026-05-02 17:00 9.05 54700 188000 (2019) 38100 (2023) 90300 39000 47800 51000 75400 125000 161000 187000
2026-05-02 16:00 9.09 55000 188000 (2019) 38100 (2023) 90300 39000 47800 51000 75400 125000 161000 187000
2026-05-02 15:00 9.13 55200 188000 (2019) 38100 (2023) 90300 39000 47800 51000 75400 125000 161000 187000
2026-05-02 14:00 9.13 55200 188000 (2019) 38100 (2023) 90300 39000 47800 51000 75400 125000 161000 187000
2026-05-02 13:00 9.17 55400 188000 (2019) 38100 (2023) 90300 39000 47800 51000 75400 125000 161000 187000
2026-05-02 12:00 9.21 55700 188000 (2019) 38100 (2023) 90300 39000 47800 51000 75400 125000 161000 187000
2026-05-02 11:00 9.23 55800 188000 (2019) 38100 (2023) 90300 39000 47800 51000 75400 125000 161000 187000
2026-05-02 10:00 9.24 55900 188000 (2019) 38100 (2023) 90300 39000 47800 51000 75400 125000 161000 187000
2026-05-02 09:00 9.28 56100 188000 (2019) 38100 (2023) 90300 39000 47800 51000 75400 125000 161000 187000
2026-05-02 08:00 9.30 56200 188000 (2019) 38100 (2023) 90300 39000 47800 51000 75400 125000 161000 187000
2026-05-02 07:00 9.32 56400 188000 (2019) 38100 (2023) 90300 39000 47800 51000 75400 125000 161000 187000
2026-05-02 06:00 9.33 56400 188000 (2019) 38100 (2023) 90300 39000 47800 51000 75400 125000 161000 187000
2026-05-02 05:00 9.33 56400 188000 (2019) 38100 (2023) 90300 39000 47800 51000 75400 125000 161000 187000
2026-05-02 04:00 9.35 56600 188000 (2019) 38100 (2023) 90300 39000 47800 51000 75400 125000 161000 187000
2026-05-02 03:00 9.35 56600 188000 (2019) 38100 (2023) 90300 39000 47800 51000 75400 125000 161000 187000
2026-05-02 02:00 9.37 56700 188000 (2019) 38100 (2023) 90300 39000 47800 51000 75400 125000 161000 187000
2026-05-02 01:00 9.42 57000 188000 (2019) 38100 (2023) 90300 39000 47800 51000 75400 125000 161000 187000
2026-05-02 00:00 9.40 56900 188000 (2019) 38100 (2023) 90300 39000 47800 51000 75400 125000 161000 187000
2026-05-01 23:00 9.43 57100 188000 (2019) 38100 (2023) 90300 39000 47800 51000 75400 125000 161000 187000

A total of 85 rows are displayed for years 2015 through 2024.